Time;durP1;ratioP1;P1;durP2;ratioP2;P2;SDS_P1;SDS_P2;PMS_P1;PMS_P2;Temp;Humidity;BMP_temperature;BMP_pressure;BME280_temperature;BME280_humidity;BME280_pressure;Samples;Min_cycle;Max_cycle;Signal;HPM_P1;HPM_P2
2021/05/04 00:00:48;;;;;;;10.03;7.97;;;;;20.80;99293.00;;;;2070150;28;20253;-66
2021/05/04 00:01:49;;;;;;;9.37;7.90;;;;;20.70;99294.00;;;;2070111;28;20713;-66
2021/05/04 00:02:49;;;;;;;9.13;8.20;;;;;20.70;99293.00;;;;2070220;28;20218;-66
2021/05/04 00:03:50;;;;;;;9.27;8.30;;;;;20.80;99294.00;;;;2077686;28;20218;-66
2021/05/04 00:04:50;;;;;;;7.87;7.03;;;;;20.70;99288.00;;;;2078425;28;20711;-66
2021/05/04 00:05:50;;;;;;;7.70;6.90;;;;;20.70;99290.00;;;;2078632;28;20585;-66
2021/05/04 00:06:52;;;;;;;8.83;7.90;;;;;20.80;99292.00;;;;2079220;28;20570;-66
2021/05/04 00:07:52;;;;;;;10.73;8.23;;;;;20.70;99281.00;;;;2076767;28;20214;-66
2021/05/04 00:08:52;;;;;;;7.70;6.80;;;;;20.70;99295.00;;;;2078840;28;20244;-66
2021/05/04 00:09:53;;;;;;;9.97;7.63;;;;;20.70;99270.00;;;;2079130;28;20213;-66
2021/05/04 00:10:53;;;;;;;8.97;7.57;;;;;20.70;99274.00;;;;2072867;28;20222;-66
2021/05/04 00:11:53;;;;;;;9.07;7.60;;;;;20.70;99265.00;;;;2079683;28;20206;-67
2021/05/04 00:12:54;;;;;;;7.90;7.10;;;;;20.70;99269.00;;;;2077834;28;20582;-66
2021/05/04 00:13:54;;;;;;;7.60;6.90;;;;;20.70;99263.00;;;;2081260;28;20261;-66
2021/05/04 00:14:54;;;;;;;9.90;7.77;;;;;20.70;99259.00;;;;2081316;28;20227;-66
2021/05/04 00:15:55;;;;;;;10.10;6.60;;;;;20.70;99260.00;;;;2081421;28;20214;-66
2021/05/04 00:16:55;;;;;;;8.53;7.63;;;;;20.70;99260.00;;;;2081350;28;20268;-66
2021/05/04 00:17:55;;;;;;;7.23;6.57;;;;;20.70;99251.00;;;;2077386;28;20241;-66
2021/05/04 00:18:56;;;;;;;6.83;6.13;;;;;20.70;99248.00;;;;2078655;28;20267;-66
2021/05/04 00:19:56;;;;;;;7.93;6.73;;;;;20.70;99241.00;;;;2081482;28;20218;-66
2021/05/04 00:20:56;;;;;;;6.77;5.60;;;;;20.70;99226.00;;;;2081266;28;20246;-66
2021/05/04 00:21:57;;;;;;;7.23;5.63;;;;;20.70;99235.00;;;;2080256;28;20225;-66
2021/05/04 00:22:57;;;;;;;7.13;6.33;;;;;20.70;99230.00;;;;2066421;28;20359;-66
2021/05/04 00:23:58;;;;;;;7.13;6.13;;;;;20.70;99225.00;;;;2079894;28;20218;-66
2021/05/04 00:24:58;;;;;;;8.13;7.33;;;;;20.70;99224.00;;;;2080590;28;20782;-66
2021/05/04 00:25:58;;;;;;;7.40;6.73;;;;;20.70;99223.00;;;;2080370;28;20229;-66
2021/05/04 00:26:59;;;;;;;8.20;5.80;;;;;20.70;99220.00;;;;2080703;28;20692;-66
2021/05/04 00:27:59;;;;;;;6.90;5.97;;;;;20.70;99205.00;;;;2080366;28;20213;-66
2021/05/04 00:28:59;;;;;;;5.97;5.37;;;;;20.70;99211.00;;;;2078514;28;20225;-66
2021/05/04 00:30:00;;;;;;;6.80;5.60;;;;;20.70;99213.00;;;;2079947;28;20229;-66
2021/05/04 00:31:00;;;;;;;6.80;5.90;;;;;20.70;99209.00;;;;2080879;28;20246;-65
2021/05/04 00:32:00;;;;;;;6.33;5.73;;;;;20.70;99193.00;;;;2079560;28;20218;-66
2021/05/04 00:33:01;;;;;;;6.43;5.57;;;;;20.70;99193.00;;;;2078426;28;20280;-66
2021/05/04 00:34:01;;;;;;;6.00;5.40;;;;;20.70;99190.00;;;;2080407;28;20210;-65
2021/05/04 00:35:02;;;;;;;5.70;5.20;;;;;20.70;99186.00;;;;2081039;28;20297;-66
2021/05/04 00:36:02;;;;;;;6.80;6.20;;;;;20.70;99195.00;;;;2081030;28;20287;-66
2021/05/04 00:37:02;;;;;;;5.47;4.97;;;;;20.60;99190.00;;;;2080525;28;20736;-66
2021/05/04 00:38:03;;;;;;;6.67;6.03;;;;;20.70;99180.00;;;;2078084;28;20218;-65
2021/05/04 00:39:03;;;;;;;6.00;5.40;;;;;20.60;99186.00;;;;2080302;28;20217;-66
2021/05/04 00:40:04;;;;;;;5.40;4.90;;;;;20.70;99175.00;;;;2072161;28;20215;-66
2021/05/04 00:41:05;;;;;;;5.60;5.00;;;;;20.70;99162.00;;;;2080391;28;20611;-66
2021/05/04 00:42:05;;;;;;;5.70;5.10;;;;;20.60;99160.00;;;;2080423;28;21036;-66
2021/05/04 00:43:05;;;;;;;5.77;5.17;;;;;20.60;99153.00;;;;2077471;28;20289;-66
2021/05/04 00:44:06;;;;;;;5.60;5.03;;;;;20.60;99167.00;;;;2079665;28;20216;-66
2021/05/04 00:45:07;;;;;;;5.93;5.30;;;;;20.60;99162.00;;;;2080596;28;20222;-66
2021/05/04 00:46:07;;;;;;;5.80;5.10;;;;;20.60;99158.00;;;;2079910;28;20305;-66
2021/05/04 00:47:08;;;;;;;5.70;4.83;;;;;20.60;99156.00;;;;2071686;28;20325;-66
2021/05/04 00:48:08;;;;;;;5.27;4.77;;;;;20.60;99147.00;;;;2063443;28;20230;-66
2021/05/04 00:49:08;;;;;;;5.00;4.43;;;;;20.60;99142.00;;;;2071641;28;20246;-66
2021/05/04 00:50:09;;;;;;;5.10;4.60;;;;;20.60;99147.00;;;;2080420;28;20440;-66
2021/05/04 00:51:10;;;;;;;4.90;4.40;;;;;20.60;99143.00;;;;2081030;28;20210;-66
2021/05/04 00:52:10;;;;;;;4.63;4.23;;;;;20.60;99136.00;;;;2071839;28;20489;-66
2021/05/04 00:53:10;;;;;;;4.73;4.33;;;;;20.60;99133.00;;;;2061229;28;20223;-66
2021/05/04 00:54:11;;;;;;;5.37;4.60;;;;;20.60;99132.00;;;;2071448;28;20292;-66
2021/05/04 00:55:11;;;;;;;4.37;3.97;;;;;20.60;99130.00;;;;2071540;28;20371;-66
2021/05/04 00:56:12;;;;;;;6.30;4.20;;;;;20.60;99119.00;;;;2070529;28;20219;-66
2021/05/04 00:57:12;;;;;;;6.80;4.80;;;;;20.60;99116.00;;;;2059021;28;20239;-66
2021/05/04 00:58:13;;;;;;;5.50;5.00;;;;;20.60;99117.00;;;;2053325;28;20216;-66
2021/05/04 00:59:13;;;;;;;4.63;4.20;;;;;20.60;99113.00;;;;2063441;28;20211;-66
2021/05/04 01:00:14;;;;;;;5.70;4.70;;;;;20.60;99116.00;;;;2071679;28;20211;-65
2021/05/04 01:01:14;;;;;;;4.43;4.00;;;;;20.60;99101.00;;;;2079870;28;20227;-66
2021/05/04 01:02:16;;;;;;;4.63;4.13;;;;;20.60;99099.00;;;;2079918;28;20217;-66
2021/05/04 01:03:16;;;;;;;4.30;3.90;;;;;20.60;99102.00;;;;2064103;28;20216;-66
2021/05/04 01:04:16;;;;;;;4.77;4.23;;;;;20.60;99083.00;;;;2064008;28;20220;-65
2021/05/04 01:05:17;;;;;;;5.43;4.47;;;;;20.60;99081.00;;;;2072079;28;20211;-66
2021/05/04 01:06:17;;;;;;;5.53;4.53;;;;;20.60;99092.00;;;;2080179;28;20225;-66
2021/05/04 01:07:17;;;;;;;5.00;4.50;;;;;20.60;99086.00;;;;2080069;28;20256;-66
2021/05/04 01:08:18;;;;;;;5.30;4.87;;;;;20.60;99090.00;;;;2077847;28;20707;-65
2021/05/04 01:09:18;;;;;;;5.00;4.50;;;;;20.60;99067.00;;;;2081020;28;20233;-66
2021/05/04 01:10:18;;;;;;;4.40;4.00;;;;;20.60;99079.00;;;;2080628;28;20236;-66
2021/05/04 01:11:19;;;;;;;4.47;4.07;;;;;20.60;99069.00;;;;2080696;28;20265;-66
2021/05/04 01:12:19;;;;;;;4.50;3.90;;;;;20.60;99076.00;;;;2080396;28;20217;-66
2021/05/04 01:13:20;;;;;;;4.67;4.00;;;;;20.60;99069.00;;;;2080171;28;20218;-66
2021/05/04 01:14:21;;;;;;;4.37;3.97;;;;;20.60;99067.00;;;;2079949;28;20621;-66
2021/05/04 01:15:21;;;;;;;5.93;4.10;;;;;20.60;99071.00;;;;2080024;28;20229;-66
2021/05/04 01:16:21;;;;;;;3.73;3.43;;;;;20.60;99062.00;;;;2088327;28;20790;-66
2021/05/04 01:17:22;;;;;;;5.60;3.93;;;;;20.60;99057.00;;;;2088342;28;20580;-66
2021/05/04 01:18:22;;;;;;;4.23;3.60;;;;;20.60;99055.00;;;;2079438;28;20572;-66
2021/05/04 01:19:22;;;;;;;3.77;3.47;;;;;20.60;99042.00;;;;2080242;28;20683;-67
2021/05/04 01:20:23;;;;;;;3.97;3.67;;;;;20.60;99048.00;;;;2071291;28;20767;-66
2021/05/04 01:21:23;;;;;;;4.33;3.90;;;;;20.60;99055.00;;;;2071544;28;20222;-66
2021/05/04 01:22:23;;;;;;;4.27;3.60;;;;;20.60;99052.00;;;;2079694;28;20206;-66
2021/05/04 01:23:24;;;;;;;3.90;3.50;;;;;20.60;99039.00;;;;2076377;28;20214;-66
2021/05/04 01:24:24;;;;;;;3.50;3.20;;;;;20.60;99055.00;;;;2071158;28;20222;-66
2021/05/04 01:25:24;;;;;;;3.73;3.43;;;;;20.60;99036.00;;;;2071018;28;20211;-66
2021/05/04 01:26:25;;;;;;;3.90;3.60;;;;;20.60;99043.00;;;;2071535;28;20676;-66
2021/05/04 01:27:25;;;;;;;3.80;3.50;;;;;20.60;99030.00;;;;2079896;28;20651;-66
2021/05/04 01:28:25;;;;;;;4.23;3.83;;;;;20.60;99037.00;;;;2080084;28;20699;-66
2021/05/04 01:29:26;;;;;;;3.73;3.23;;;;;20.50;99041.00;;;;2080249;28;20456;-66
2021/05/04 01:30:26;;;;;;;4.33;3.37;;;;;20.50;99041.00;;;;2080246;28;20237;-66
2021/05/04 01:31:27;;;;;;;3.60;3.30;;;;;20.50;99037.00;;;;2080294;28;20727;-65
2021/05/04 01:32:27;;;;;;;4.60;4.00;;;;;20.50;99047.00;;;;2079613;28;20584;-66
2021/05/04 01:33:27;;;;;;;4.10;3.20;;;;;20.50;99027.00;;;;2080582;28;20614;-66
2021/05/04 01:34:28;;;;;;;3.90;3.40;;;;;20.50;99027.00;;;;2080787;28;20626;-66
2021/05/04 01:35:28;;;;;;;3.33;3.03;;;;;20.50;99015.00;;;;2080496;28;20252;-66
2021/05/04 01:36:28;;;;;;;3.67;3.37;;;;;20.50;99022.00;;;;2080733;28;20329;-66
2021/05/04 01:37:29;;;;;;;3.20;2.90;;;;;20.50;99019.00;;;;2080710;28;20210;-66
2021/05/04 01:38:29;;;;;;;3.73;3.03;;;;;20.50;99022.00;;;;2080468;28;20206;-66
2021/05/04 01:39:41;;;;;;;2.97;2.77;;;;;20.50;99008.00;;;;2079900;28;20300;-66
2021/05/04 01:40:42;;;;;;;3.20;2.90;;;;;20.50;99010.00;;;;2071759;28;20601;-66
2021/05/04 01:41:43;;;;;;;3.10;2.80;;;;;20.50;99005.00;;;;2077422;28;20206;-66
2021/05/04 01:42:45;;;;;;;3.20;2.90;;;;;20.50;99003.00;;;;2072293;28;20210;-66
2021/05/04 01:43:45;;;;;;;3.83;3.42;;;;;20.50;98993.00;;;;2073739;28;20245;-65
2021/05/04 01:44:45;;;;;;;3.10;2.90;;;;;20.50;99000.00;;;;2079883;28;20213;-66
2021/05/04 01:45:46;;;;;;;3.53;2.70;;;;;20.50;98987.00;;;;2079926;28;20206;-66
2021/05/04 01:46:46;;;;;;;3.10;2.80;;;;;20.50;98986.00;;;;2079613;28;20198;-66
2021/05/04 01:47:46;;;;;;;3.10;2.80;;;;;20.50;98982.00;;;;2074993;28;20214;-66
2021/05/04 01:48:47;;;;;;;3.80;3.13;;;;;20.50;99006.00;;;;2079771;28;20233;-66
2021/05/04 01:49:47;;;;;;;7.23;3.77;;;;;20.50;98987.00;;;;2080520;28;20214;-66
2021/05/04 01:50:47;;;;;;;2.70;2.50;;;;;20.50;98992.00;;;;2079901;28;20245;-66
2021/05/04 01:51:48;;;;;;;3.40;3.10;;;;;20.50;98992.00;;;;2079527;28;20210;-65
2021/05/04 01:52:48;;;;;;;3.53;3.23;;;;;20.50;98995.00;;;;2075332;28;20688;-65
2021/05/04 01:53:48;;;;;;;3.00;2.73;;;;;20.50;98984.00;;;;2063390;28;20714;-66
2021/05/04 01:54:49;;;;;;;3.00;2.80;;;;;20.50;98989.00;;;;2063511;28;20842;-65
2021/05/04 01:55:50;;;;;;;3.20;2.90;;;;;20.50;98980.00;;;;2079800;28;20257;-66
2021/05/04 01:56:51;;;;;;;3.53;3.20;;;;;20.50;98977.00;;;;2080533;28;20704;-66
2021/05/04 01:57:51;;;;;;;3.05;2.85;;;;;20.50;98981.00;;;;2079965;28;20210;-66
2021/05/04 01:58:54;;;;;;;3.43;2.93;;;;;20.50;98982.00;;;;2071561;28;20628;-66
2021/05/04 01:59:55;;;;;;;3.17;2.80;;;;;20.50;98985.00;;;;2071962;28;20223;-66
2021/05/04 02:00:55;;;;;;;2.93;2.67;;;;;20.50;98985.00;;;;2079928;28;20799;-66
2021/05/04 02:01:56;;;;;;;2.90;2.70;;;;;20.50;98986.00;;;;2080426;28;20724;-66
2021/05/04 02:02:56;;;;;;;3.27;2.97;;;;;20.50;98977.00;;;;2080226;28;20244;-66
2021/05/04 02:03:57;;;;;;;3.13;2.93;;;;;20.50;99009.00;;;;2080488;28;20715;-66
2021/05/04 02:04:57;;;;;;;3.33;3.03;;;;;20.50;99010.00;;;;2079637;28;20222;-66
2021/05/04 02:05:57;;;;;;;3.23;2.93;;;;;20.50;99013.00;;;;2071621;28;20717;-66
2021/05/04 02:06:59;;;;;;;3.50;3.20;;;;;20.50;99015.00;;;;2079371;28;20620;-66
2021/05/04 02:07:59;;;;;;;3.03;2.70;;;;;20.50;99015.00;;;;2079807;28;20331;-66
2021/05/04 02:08:59;;;;;;;2.90;2.50;;;;;20.50;99019.00;;;;2071544;28;20230;-66
2021/05/04 02:10:00;;;;;;;2.67;2.47;;;;;20.50;98987.00;;;;2079425;28;20263;-66
2021/05/04 02:11:01;;;;;;;2.83;2.50;;;;;20.50;98994.00;;;;2079771;28;20225;-66
2021/05/04 02:12:02;;;;;;;3.33;2.90;;;;;20.50;99025.00;;;;2079625;28;20292;-66
2021/05/04 02:13:02;;;;;;;2.67;2.47;;;;;20.50;98985.00;;;;2079359;28;20214;-66
2021/05/04 02:14:06;;;;;;;2.90;2.70;;;;;20.40;98983.00;;;;2071343;28;20701;-66
2021/05/04 02:15:06;;;;;;;2.90;2.55;;;;;20.40;98971.00;;;;2071565;28;20868;-66
2021/05/04 02:16:07;;;;;;;3.30;2.67;;;;;20.40;98990.00;;;;2079618;28;20252;-69
2021/05/04 02:17:07;;;;;;;2.87;2.47;;;;;20.40;98978.00;;;;2079736;28;20222;-66
2021/05/04 02:18:08;;;;;;;2.53;2.33;;;;;20.40;98986.00;;;;2080261;28;20764;-66
2021/05/04 02:19:08;;;;;;;4.70;2.67;;;;;20.40;98977.00;;;;2080388;28;20218;-66
2021/05/04 02:20:10;;;;;;;6.07;2.87;;;;;20.40;98991.00;;;;2079567;28;20222;-66
2021/05/04 02:21:10;;;;;;;6.03;2.80;;;;;20.40;98982.00;;;;2063017;28;20235;-67
2021/05/04 02:22:11;;;;;;;4.83;2.40;;;;;20.40;98997.00;;;;2071522;28;20211;-66
2021/05/04 02:23:11;;;;;;;4.33;2.47;;;;;20.40;98989.00;;;;2079115;28;20222;-66
2021/05/04 02:24:12;;;;;;;2.50;2.30;;;;;20.40;98988.00;;;;2070710;28;20222;-66
2021/05/04 02:25:13;;;;;;;3.17;2.30;;;;;20.40;98976.00;;;;2079656;28;20562;-66
2021/05/04 02:26:15;;;;;;;2.37;2.17;;;;;20.40;98969.00;;;;2080171;28;20237;-66
2021/05/04 02:27:16;;;;;;;3.35;2.17;;;;;20.40;98985.00;;;;2079637;28;20507;-66
2021/05/04 02:28:16;;;;;;;3.00;2.10;;;;;20.40;98987.00;;;;2063456;28;20257;-67
2021/05/04 02:29:17;;;;;;;2.47;2.10;;;;;20.40;98977.00;;;;2071332;28;20222;-67
2021/05/04 02:30:17;;;;;;;2.77;2.20;;;;;20.40;98976.00;;;;2079582;28;20716;-66
2021/05/04 02:31:18;;;;;;;3.30;1.70;;;;;20.40;98971.00;;;;2079458;28;20706;-66
2021/05/04 02:32:18;;;;;;;2.30;1.93;;;;;20.40;98975.00;;;;2071134;28;20301;-66
2021/05/04 02:33:18;;;;;;;4.60;2.03;;;;;20.40;98979.00;;;;2071197;28;20257;-66
2021/05/04 02:34:19;;;;;;;2.63;2.00;;;;;20.40;98978.00;;;;2079862;28;20256;-66
2021/05/04 02:35:19;;;;;;;1.87;1.70;;;;;20.40;98976.00;;;;2080053;28;20226;-66
2021/05/04 02:36:19;;;;;;;3.03;1.77;;;;;20.40;98976.00;;;;2080209;28;20209;-67
2021/05/04 02:37:20;;;;;;;3.07;1.50;;;;;20.40;98987.00;;;;2080272;28;20693;-66
2021/05/04 02:38:20;;;;;;;2.90;1.77;;;;;20.30;98982.00;;;;2080104;28;20245;-66
2021/05/04 02:39:20;;;;;;;3.13;2.00;;;;;20.40;99005.00;;;;2080173;28;20309;-66
2021/05/04 02:40:21;;;;;;;3.50;1.63;;;;;20.40;98977.00;;;;2080225;28;20267;-66
2021/05/04 02:41:21;;;;;;;2.50;1.80;;;;;20.30;98976.00;;;;2080005;28;20257;-66
2021/05/04 02:42:21;;;;;;;3.03;2.10;;;;;20.30;98987.00;;;;2079695;28;20259;-66
2021/05/04 02:43:22;;;;;;;2.03;1.83;;;;;20.30;98994.00;;;;2079381;28;20206;-66
2021/05/04 02:44:22;;;;;;;2.63;1.80;;;;;20.30;98985.00;;;;2077441;28;20724;-66
2021/05/04 02:45:23;;;;;;;2.30;1.53;;;;;20.30;98983.00;;;;2079972;28;20565;-66
2021/05/04 02:46:23;;;;;;;2.57;1.60;;;;;20.30;98983.00;;;;2080349;28;20209;-66
2021/05/04 02:47:23;;;;;;;2.00;1.73;;;;;20.30;98968.00;;;;2080001;28;20285;-66
2021/05/04 02:48:24;;;;;;;2.67;1.70;;;;;20.30;98989.00;;;;2079234;28;20293;-66
2021/05/04 02:49:24;;;;;;;3.83;1.87;;;;;20.30;98970.00;;;;2079418;28;20213;-66
2021/05/04 02:50:24;;;;;;;2.80;1.57;;;;;20.30;98968.00;;;;2087645;28;20352;-66
2021/05/04 02:51:25;;;;;;;1.83;1.50;;;;;20.30;98960.00;;;;2080117;28;20205;-66
2021/05/04 02:52:25;;;;;;;1.97;1.67;;;;;20.30;98971.00;;;;2079258;28;20206;-67
2021/05/04 02:53:25;;;;;;;2.60;1.83;;;;;20.30;98990.00;;;;2079332;28;20773;-66
2021/05/04 02:54:26;;;;;;;4.77;1.87;;;;;20.30;98975.00;;;;2079347;28;20672;-66
2021/05/04 02:55:26;;;;;;;3.20;1.70;;;;;20.30;98958.00;;;;2079399;28;20724;-66
2021/05/04 02:56:26;;;;;;;3.07;1.90;;;;;20.30;98965.00;;;;2080039;28;20799;-66
2021/05/04 02:57:27;;;;;;;2.43;1.70;;;;;20.30;98964.00;;;;2080120;28;20209;-66
2021/05/04 02:58:27;;;;;;;4.50;1.60;;;;;20.30;98952.00;;;;2079242;28;20269;-66
2021/05/04 02:59:28;;;;;;;3.03;1.57;;;;;20.30;98955.00;;;;2079161;28;20210;-66
2021/05/04 03:00:28;;;;;;;3.80;1.60;;;;;20.30;98947.00;;;;2080138;28;20217;-66
2021/05/04 03:01:28;;;;;;;4.20;1.47;;;;;20.30;98950.00;;;;2080057;28;20206;-66
2021/05/04 03:02:29;;;;;;;2.90;1.60;;;;;20.30;98958.00;;;;2079862;28;20213;-66
2021/05/04 03:03:29;;;;;;;1.90;1.23;;;;;20.30;98948.00;;;;2080060;28;20213;-66
2021/05/04 03:04:29;;;;;;;2.20;1.50;;;;;20.30;98941.00;;;;2079919;28;20206;-66
2021/05/04 03:05:30;;;;;;;2.00;1.60;;;;;20.30;98943.00;;;;2080113;28;20203;-66
2021/05/04 03:06:30;;;;;;;1.93;1.20;;;;;20.30;98937.00;;;;2079924;28;20217;-67
2021/05/04 03:07:30;;;;;;;3.67;1.50;;;;;20.30;98933.00;;;;2080067;28;20217;-67
2021/05/04 03:08:31;;;;;;;2.97;1.60;;;;;20.30;98943.00;;;;2079989;28;20205;-66
2021/05/04 03:09:31;;;;;;;4.50;1.60;;;;;20.20;98921.00;;;;2071048;28;20219;-66
2021/05/04 03:10:31;;;;;;;1.87;1.57;;;;;20.20;98913.00;;;;2070876;28;20226;-67
2021/05/04 03:11:32;;;;;;;2.63;1.40;;;;;20.20;98905.00;;;;2080067;28;20264;-66
2021/05/04 03:12:32;;;;;;;7.90;2.17;;;;;20.30;98902.00;;;;2079910;28;20293;-67
2021/05/04 03:13:32;;;;;;;1.53;1.30;;;;;20.30;98906.00;;;;2077466;28;20690;-66
2021/05/04 03:14:33;;;;;;;4.33;1.20;;;;;20.30;98915.00;;;;2079334;28;20198;-66
2021/05/04 03:15:33;;;;;;;2.00;1.60;;;;;20.30;98924.00;;;;2081929;28;20269;-66
2021/05/04 03:16:34;;;;;;;2.27;1.33;;;;;20.20;98916.00;;;;2078201;28;20734;-66
2021/05/04 03:17:34;;;;;;;2.70;1.30;;;;;20.20;98902.00;;;;2078638;28;20276;-66
2021/05/04 03:18:34;;;;;;;2.73;1.43;;;;;20.20;98907.00;;;;2080006;28;20677;-66
2021/05/04 03:19:35;;;;;;;3.23;1.50;;;;;20.20;98914.00;;;;2079021;28;20210;-66
2021/05/04 03:20:35;;;;;;;2.13;1.47;;;;;20.20;98919.00;;;;2071032;28;20211;-66
2021/05/04 03:21:35;;;;;;;3.27;1.43;;;;;20.20;98918.00;;;;2078489;28;20313;-66
2021/05/04 03:22:36;;;;;;;1.80;1.30;;;;;20.20;98913.00;;;;2079497;28;20213;-66
2021/05/04 03:23:36;;;;;;;2.30;1.37;;;;;20.20;98919.00;;;;2079295;28;20202;-66
2021/05/04 03:24:36;;;;;;;1.83;1.50;;;;;20.30;98915.00;;;;2079245;28;20279;-66
2021/05/04 03:25:37;;;;;;;1.33;1.23;;;;;20.20;98916.00;;;;2079202;28;20299;-66
2021/05/04 03:26:37;;;;;;;1.50;1.30;;;;;20.20;98920.00;;;;2077339;28;20233;-66
2021/05/04 03:27:38;;;;;;;2.87;1.50;;;;;20.20;98912.00;;;;2079951;28;20241;-66
2021/05/04 03:28:38;;;;;;;1.63;1.33;;;;;20.20;98919.00;;;;2079757;28;20248;-66
2021/05/04 03:29:38;;;;;;;2.57;1.43;;;;;20.20;98917.00;;;;2079894;28;20650;-66
2021/05/04 03:30:39;;;;;;;1.77;1.50;;;;;20.20;98925.00;;;;2079796;28;20206;-66
2021/05/04 03:31:39;;;;;;;1.87;1.30;;;;;20.20;98923.00;;;;2079206;28;20210;-66
2021/05/04 03:32:42;;;;;;;1.97;1.10;;;;;20.20;98919.00;;;;2070843;28;20297;-66
2021/05/04 03:33:42;;;;;;;1.85;1.50;;;;;20.20;98920.00;;;;2078563;28;20300;-66
2021/05/04 03:34:43;;;;;;;3.77;1.20;;;;;20.20;98919.00;;;;2079102;28;20705;-66
2021/05/04 03:35:43;;;;;;;1.53;1.43;;;;;20.20;98912.00;;;;2070881;28;20306;-67
2021/05/04 03:36:43;;;;;;;2.80;1.40;;;;;20.20;98911.00;;;;2079176;28;20214;-66
2021/05/04 03:37:45;;;;;;;1.47;1.37;;;;;20.20;98914.00;;;;2079321;28;20681;-67
2021/05/04 03:38:45;;;;;;;3.83;1.35;;;;;20.20;98921.00;;;;2079142;28;20209;-67
2021/05/04 03:39:45;;;;;;;3.43;1.33;;;;;20.20;98916.00;;;;2079224;28;20217;-66
2021/05/04 03:40:45;;;;;;;1.80;1.30;;;;;20.20;98913.00;;;;2079315;28;20218;-66
2021/05/04 03:41:46;;;;;;;1.67;1.30;;;;;20.20;98914.00;;;;2079244;28;20249;-66
2021/05/04 03:42:46;;;;;;;1.73;1.17;;;;;20.20;98921.00;;;;2078983;28;20268;-66
2021/05/04 03:43:47;;;;;;;1.90;1.13;;;;;20.20;98917.00;;;;2077484;28;20623;-66
2021/05/04 03:44:47;;;;;;;2.13;1.27;;;;;20.20;98904.00;;;;2066450;28;20305;-66
2021/05/04 03:45:47;;;;;;;1.90;0.80;;;;;20.20;98898.00;;;;2078770;28;20234;-66
2021/05/04 03:46:48;;;;;;;2.70;1.17;;;;;20.20;98910.00;;;;2079273;28;20240;-66
2021/05/04 03:47:48;;;;;;;2.83;1.40;;;;;20.20;98904.00;;;;2078975;28;20763;-66
2021/05/04 03:48:49;;;;;;;1.40;1.30;;;;;20.20;98901.00;;;;2080843;28;20505;-66
2021/05/04 03:49:49;;;;;;;2.23;1.40;;;;;20.20;98902.00;;;;2080877;28;20214;-66
2021/05/04 03:50:49;;;;;;;1.90;1.20;;;;;20.20;98905.00;;;;2080783;28;20289;-66
2021/05/04 03:51:50;;;;;;;1.47;1.00;;;;;20.20;98898.00;;;;2080805;28;20214;-66
2021/05/04 03:52:51;;;;;;;1.77;1.10;;;;;20.20;98898.00;;;;2071576;28;20214;-66
2021/05/04 03:53:51;;;;;;;1.70;1.20;;;;;20.20;98893.00;;;;2071865;28;20247;-66
2021/05/04 03:54:51;;;;;;;2.10;1.40;;;;;20.20;98897.00;;;;2080366;28;20487;-65
2021/05/04 03:55:52;;;;;;;1.97;1.30;;;;;20.20;98891.00;;;;2071891;28;20273;-66
2021/05/04 03:56:52;;;;;;;2.70;1.10;;;;;20.10;98896.00;;;;2080025;28;20210;-66
2021/05/04 03:57:52;;;;;;;1.50;1.00;;;;;20.10;98889.00;;;;2080382;28;20308;-66
2021/05/04 03:58:53;;;;;;;1.67;1.30;;;;;20.10;98883.00;;;;2072164;28;20238;-66
2021/05/04 03:59:53;;;;;;;3.20;1.33;;;;;20.10;98885.00;;;;2071991;28;20222;-66
2021/05/04 04:00:53;;;;;;;1.43;1.20;;;;;20.10;98881.00;;;;2079153;28;20299;-66
2021/05/04 04:01:54;;;;;;;5.47;1.73;;;;;20.10;98889.00;;;;2080131;28;20245;-66
2021/05/04 04:02:54;;;;;;;1.40;1.30;;;;;20.10;98871.00;;;;2071657;28;20215;-66
2021/05/04 04:03:54;;;;;;;2.00;1.33;;;;;20.20;98873.00;;;;2079663;28;20218;-66
2021/05/04 04:04:55;;;;;;;2.80;1.30;;;;;20.10;98861.00;;;;2080773;28;20368;-66
2021/05/04 04:05:56;;;;;;;3.43;1.40;;;;;20.10;98877.00;;;;2080353;28;20279;-66
2021/05/04 04:06:56;;;;;;;2.33;1.20;;;;;20.10;98874.00;;;;2080352;28;20228;-66
2021/05/04 04:07:56;;;;;;;1.53;1.27;;;;;20.10;98867.00;;;;2079732;28;20492;-66
2021/05/04 04:08:57;;;;;;;1.93;1.10;;;;;20.10;98861.00;;;;2080081;28;20264;-66
2021/05/04 04:09:57;;;;;;;1.30;1.17;;;;;20.10;98853.00;;;;2079825;28;20222;-66
2021/05/04 04:10:57;;;;;;;3.07;1.40;;;;;20.10;98857.00;;;;2072242;28;20223;-66
2021/05/04 04:11:58;;;;;;;1.20;1.00;;;;;20.10;98856.00;;;;2080511;28;20263;-66
2021/05/04 04:12:58;;;;;;;1.90;1.20;;;;;20.10;98850.00;;;;2080365;28;20217;-66
2021/05/04 04:13:59;;;;;;;1.37;1.20;;;;;20.10;98854.00;;;;2080018;28;20217;-67
2021/05/04 04:14:59;;;;;;;3.60;1.50;;;;;20.10;98863.00;;;;2080104;28;20857;-66
2021/05/04 04:16:00;;;;;;;1.83;1.30;;;;;20.10;98851.00;;;;2072193;28;20222;-66
2021/05/04 04:17:00;;;;;;;1.40;1.10;;;;;20.10;98856.00;;;;2064209;28;20246;-66
2021/05/04 04:18:01;;;;;;;1.50;1.33;;;;;20.10;98858.00;;;;2064219;28;20665;-67
2021/05/04 04:19:01;;;;;;;1.97;1.00;;;;;20.10;98855.00;;;;2072490;28;20218;-66
2021/05/04 04:20:02;;;;;;;1.30;1.20;;;;;20.10;98843.00;;;;2072391;28;20294;-66
2021/05/04 04:21:02;;;;;;;1.80;1.20;;;;;20.10;98855.00;;;;2072344;28;20269;-66
2021/05/04 04:22:03;;;;;;;1.30;1.13;;;;;20.10;98856.00;;;;2070324;28;20222;-66
2021/05/04 04:23:03;;;;;;;1.80;1.30;;;;;20.10;98861.00;;;;2080415;28;20210;-66
2021/05/04 04:24:04;;;;;;;1.93;1.20;;;;;20.10;98852.00;;;;2080228;28;20673;-66
2021/05/04 04:25:05;;;;;;;1.30;1.13;;;;;20.00;98851.00;;;;2080588;28;20305;-66
2021/05/04 04:26:05;;;;;;;1.80;1.27;;;;;20.00;98853.00;;;;2080426;28;20225;-66
2021/05/04 04:27:05;;;;;;;2.93;1.30;;;;;20.10;98855.00;;;;2080238;28;20709;-66
2021/05/04 04:28:06;;;;;;;1.30;1.10;;;;;20.10;98855.00;;;;2080432;28;20573;-67
2021/05/04 04:29:06;;;;;;;1.50;1.17;;;;;20.10;98858.00;;;;2080358;28;20202;-66
2021/05/04 04:30:07;;;;;;;1.50;1.30;;;;;20.00;98846.00;;;;2081088;28;20214;-66
2021/05/04 04:31:07;;;;;;;2.20;1.20;;;;;20.10;98848.00;;;;2080763;28;20225;-66
2021/05/04 04:32:08;;;;;;;2.30;1.10;;;;;20.10;98843.00;;;;2081029;28;20554;-66
2021/05/04 04:33:08;;;;;;;1.03;0.93;;;;;20.10;98829.00;;;;2080860;28;20214;-66
2021/05/04 04:34:08;;;;;;;1.60;0.97;;;;;20.10;98847.00;;;;2080976;28;20692;-65
2021/05/04 04:35:09;;;;;;;1.53;1.10;;;;;20.00;98835.00;;;;2072170;28;20717;-66
2021/05/04 04:36:10;;;;;;;2.47;1.00;;;;;20.10;98816.00;;;;2064359;28;20207;-66
2021/05/04 04:37:10;;;;;;;1.83;1.07;;;;;20.10;98815.00;;;;2079871;28;20211;-67
2021/05/04 04:38:11;;;;;;;1.43;1.13;;;;;20.10;98815.00;;;;2081120;28;20210;-66
2021/05/04 04:39:11;;;;;;;1.83;1.10;;;;;20.00;98820.00;;;;2081155;28;20206;-66
2021/05/04 04:40:12;;;;;;;2.33;1.43;;;;;20.10;98812.00;;;;2080877;28;20773;-66
2021/05/04 04:41:12;;;;;;;1.13;1.03;;;;;20.10;98812.00;;;;2080317;28;20214;-66
2021/05/04 04:42:12;;;;;;;1.10;1.00;;;;;20.00;98817.00;;;;2080342;28;20270;-66
2021/05/04 04:43:13;;;;;;;1.40;1.10;;;;;20.10;98817.00;;;;2080148;28;20759;-66
2021/05/04 04:44:13;;;;;;;1.97;1.17;;;;;20.00;98805.00;;;;2072139;28;20788;-66
2021/05/04 04:45:14;;;;;;;1.70;1.00;;;;;20.00;98797.00;;;;2080355;28;20206;-66
2021/05/04 04:46:14;;;;;;;1.17;1.07;;;;;20.00;98816.00;;;;2080237;28;20217;-66
2021/05/04 04:47:15;;;;;;;1.83;1.10;;;;;20.10;98795.00;;;;2072036;28;20214;-67
2021/05/04 04:48:15;;;;;;;1.67;1.20;;;;;20.10;98811.00;;;;2080422;28;20210;-66
2021/05/04 04:49:16;;;;;;;1.90;1.30;;;;;20.00;98809.00;;;;2080202;28;20221;-66
2021/05/04 04:50:17;;;;;;;1.60;1.20;;;;;20.00;98803.00;;;;2080390;28;20734;-66
2021/05/04 04:51:17;;;;;;;1.73;1.33;;;;;20.00;98802.00;;;;2080866;28;20222;-66
2021/05/04 04:52:17;;;;;;;2.37;1.10;;;;;20.00;98800.00;;;;2080422;28;20218;-66
2021/05/04 04:53:18;;;;;;;1.23;1.10;;;;;20.00;98787.00;;;;2079672;28;20324;-66
2021/05/04 04:54:18;;;;;;;2.10;1.20;;;;;20.00;98787.00;;;;2080208;28;20275;-66
2021/05/04 04:55:18;;;;;;;1.53;1.30;;;;;20.00;98791.00;;;;2080419;28;20222;-66
2021/05/04 04:56:19;;;;;;;2.00;1.20;;;;;20.00;98788.00;;;;2080506;28;20217;-66
2021/05/04 04:57:20;;;;;;;4.53;1.10;;;;;20.00;98787.00;;;;2080694;28;20237;-68
2021/05/04 04:58:20;;;;;;;1.70;1.30;;;;;20.00;98770.00;;;;2079972;28;20214;-67
2021/05/04 04:59:20;;;;;;;1.07;0.93;;;;;20.00;98782.00;;;;2080316;28;20449;-66
2021/05/04 05:00:21;;;;;;;1.33;1.10;;;;;20.00;98778.00;;;;2080437;28;20718;-65
2021/05/04 05:01:21;;;;;;;1.10;1.00;;;;;20.00;98776.00;;;;2079952;28;20762;-66
2021/05/04 05:02:21;;;;;;;1.20;1.00;;;;;20.00;98774.00;;;;2079874;28;20255;-66
2021/05/04 05:03:24;;;;;;;1.20;1.03;;;;;20.00;98772.00;;;;2080393;28;20215;-66